Portada
METAR-TAF:

METAR-TAF

Aeroports :

Vavaʻu, Tonga

latitud: 18-35-07S, longitud: 173-57-42W, altitud: 72 m

Observació

L'informe es va fer fa 5 hores i 36 minuts, a les 06:00 UTC
Vent 5 kt del Est
Temperatura 25°C
Humitat 74%
Pressió 1016 hPa
Visibilitat 10 km o més
Escasses núvols a una alçada de 1700 ft

METAR: NFTV 250600Z 10005KT 9999 FEW017 25/20 Q1016

Hora: 00:36 (11:36 UTC)

Pronòstic

L'informe es va fer fa 31 minuts, a les 11:05 UTC
Pronòstic vàlid del 25 a les 12 UTC al 26 a les 12 UTC
Vent 5 kt del Est/Sud-Est
Visibilitat 10 km o més
Escasses núvols a una alçada de 1700 ft

TAF: NFTV 251105Z 2512/2612 12005KT 9999 FEW017

Observacions i pronòstics meteorològics de més de 4000 aeroports (METAR i TAF).

Les estacions disponibles són els punts grocs i vermells al mapa.

Posi el ratolí al punt desitjat per veure el nom de l'estació.

Feu clic per veure les observacions i els pronòstics meteorològics.

Per canviar el mapa: feu clic els botons verds amb una creu de color negre per apropar; al botó verd amb un guió per allunyar la imatge; o en les fletxes verdes per a mapes adjacents.


METAR-TAF: